CheckWX is a tool to help pilots better visualize weather data.  It is not intended as a substitute for an official pre-flight weather briefing.

03:03:08 UTC

FYWB METAR
Walvis Bay Airport
Walvis Bay, Namibia
Current

2 hours ago

FYWB 170100Z AUTO 01003KT //// // ////// 17/16 Q1015
Observed
Feb-17 @ 01:00 UTC
Wind
  • 010° at 3 KTS
Visibility
Temperature
17°C / 63°F
Dewpoint
16°C / 61°F
Humidity
94%
Altimeter
29.97" Hg
Pressure
1014.92 hPa
Previous

3 hours ago

FYWB 170000Z AUTO 01004KT //// // ////// 17/16 Q1015
Observed
Feb-17 @ 00:00 UTC
Wind
  • 010° at 4 KTS
Visibility
Temperature
17°C / 63°F
Dewpoint
16°C / 61°F
Humidity
94%
Altimeter
29.97" Hg
Pressure
1014.92 hPa
Previous

4 hours ago

FYWB 162300Z AUTO 01007KT //// // ////// 17/16 Q1015
Observed
Feb-16 @ 23:00 UTC
Wind
  • 010° at 7 KTS
Visibility
Temperature
17°C / 63°F
Dewpoint
16°C / 61°F
Humidity
94%
Altimeter
29.97" Hg
Pressure
1014.92 hPa